TE88 weather

Bb Airpark
Rosharon, Texas, United States

Public forecast

Using degrees Fahrenheit for public forecast. Weather courtesy of forecast.io.

METAR (pilot weather report)

Closest report is Houston Southwest Airport, 9.0 nm (16.7 km) N. Retrieved 2019/09/23 14:35 UTC (13 seconds ago):

KAXH 231435Z AUTO 14003KT 10SM SCT011 28/26 A3006 RMK AO2 T02810259

TAF (pilot weather forecast)

Closest forecast is Texas Gulf Coast Regional Airport, 14.9 nm (27.6 km) S. Retrieved 2019/09/23 12:22 UTC (2 hours ago):

TAF KLBX 231120Z 2312/2412 VRB03KT P6SM VCSH SCT015 SCT250 FM231400 15007KT P6SM VCSH SCT025 BKN035 TEMPO 2315/2319 TSRA BKN030CB FM232200 14009KT P6SM SCT035 BKN250 FM240100 13004KT P6SM SCT020 SCT250 FM240600 11003KT 6SM BR FEW250